Time;durP1;ratioP1;P1;durP2;ratioP2;P2;SDS_P1;SDS_P2;PMS_P1;PMS_P2;Temp;Humidity;BMP_temperature;BMP_pressure;BME280_temperature;BME280_humidity;BME280_pressure;Samples;Min_cycle;Max_cycle;Signal;HPM_P1;HPM_P2
2022/08/15 00:00:54;;;;;;;6.20;4.97;;;18.90;99.90;;;;;;5053521;28;20409;-69
2022/08/15 00:03:24;;;;;;;11.47;5.70;;;18.80;99.90;;;;;;5036323;28;20783;-78
2022/08/15 00:05:50;;;;;;;4.73;4.23;;;18.80;99.90;;;;;;5036398;28;20410;-70
2022/08/15 00:08:17;;;;;;;6.80;4.40;;;18.80;99.90;;;;;;5034882;28;21003;-70
2022/08/15 00:10:45;;;;;;;6.40;6.00;;;18.80;99.90;;;;;;5036487;28;20421;-69
2022/08/15 00:13:22;;;;;;;5.53;5.13;;;18.70;99.90;;;;;;5051199;28;20449;-70
2022/08/15 00:15:49;;;;;;;5.13;4.77;;;18.70;99.90;;;;;;5051133;28;20425;-78
2022/08/15 00:18:16;;;;;;;6.33;4.77;;;18.70;99.90;;;;;;5043960;28;20434;-70
2022/08/15 00:20:42;;;;;;;6.33;4.87;;;18.70;99.90;;;;;;5053518;28;20394;-78
2022/08/15 00:23:13;;;;;;;5.23;4.83;;;18.60;99.90;;;;;;5036919;28;20418;-78
2022/08/15 00:25:44;;;;;;;5.07;4.63;;;18.60;99.90;;;;;;5035950;28;20917;-78
2022/08/15 00:28:10;;;;;;;6.90;5.53;;;18.60;99.90;;;;;;5044554;28;20446;-69
2022/08/15 00:30:38;;;;;;;5.40;4.90;;;18.60;99.90;;;;;;5034494;28;20774;-72
2022/08/15 00:33:04;;;;;;;4.90;4.50;;;18.50;99.90;;;;;;5044708;28;20615;-77
2022/08/15 00:35:36;;;;;;;5.50;5.20;;;18.50;99.90;;;;;;5054242;28;20410;-69
2022/08/15 00:38:15;;;;;;;5.20;4.70;;;18.50;99.90;;;;;;5046067;28;20449;-69
2022/08/15 00:43:31;;;;;;;5.40;4.93;;;18.50;99.90;;;;;;5046671;28;20429;-76
2022/08/15 00:45:56;;;;;;;5.13;4.70;;;18.50;99.90;;;;;;5055395;28;20777;-69
2022/08/15 00:51:16;;;;;;;5.13;4.73;;;18.50;99.90;;;;;;5035453;28;20270;-69
2022/08/15 00:53:52;;;;;;;5.50;4.67;;;18.50;99.90;;;;;;5047165;28;20453;-78
2022/08/15 00:56:21;;;;;;;5.63;5.03;;;18.40;99.90;;;;;;5054530;28;20912;-69
2022/08/15 00:58:47;;;;;;;5.40;4.90;;;18.40;99.90;;;;;;5041056;28;20430;-70
2022/08/15 01:01:14;;;;;;;6.13;5.10;;;18.40;99.90;;;;;;5034045;28;20445;-78
2022/08/15 01:03:45;;;;;;;7.30;5.33;;;18.30;99.90;;;;;;5039608;28;20418;-78
2022/08/15 01:06:11;;;;;;;5.40;5.00;;;18.30;99.90;;;;;;5050176;28;20417;-69
2022/08/15 01:08:40;;;;;;;6.57;5.17;;;18.30;99.90;;;;;;5053290;28;20968;-78
2022/08/15 01:11:13;;;;;;;7.07;5.90;;;18.30;99.90;;;;;;5049335;28;20751;-78
2022/08/15 01:13:41;;;;;;;5.50;5.00;;;18.30;99.90;;;;;;5037580;28;20496;-77
2022/08/15 01:16:07;;;;;;;7.03;5.73;;;18.30;99.90;;;;;;5039415;28;20414;-69
2022/08/15 01:18:34;;;;;;;6.27;5.67;;;18.30;99.90;;;;;;5052335;28;20772;-78
2022/08/15 01:21:10;;;;;;;8.80;5.97;;;18.30;99.90;;;;;;5050630;28;20472;-78
2022/08/15 01:24:19;;;;;;;5.63;5.07;;;18.30;99.90;;;;;;5034837;28;20407;-78
2022/08/15 01:26:45;;;;;;;7.27;5.53;;;18.30;99.90;;;;;;5055041;28;20421;-70
2022/08/15 01:29:14;;;;;;;6.63;5.07;;;18.20;99.90;;;;;;5036733;28;20472;-78
2022/08/15 01:31:39;;;;;;;5.90;5.07;;;18.20;99.90;;;;;;5053618;28;20424;-78
2022/08/15 01:34:05;;;;;;;7.97;5.77;;;18.20;99.90;;;;;;5052379;28;20456;-78
2022/08/15 01:36:32;;;;;;;9.43;5.53;;;18.20;99.90;;;;;;5053481;28;20566;-69
2022/08/15 01:39:12;;;;;;;7.33;5.70;;;18.20;99.90;;;;;;5038356;28;20278;-69
2022/08/15 01:42:01;;;;;;;6.80;6.10;;;18.20;99.90;;;;;;5034502;28;20402;-78
2022/08/15 01:44:38;;;;;;;6.83;6.20;;;18.10;99.90;;;;;;5052978;28;20770;-69
2022/08/15 01:47:14;;;;;;;8.17;5.90;;;18.00;99.90;;;;;;5052426;28;20412;-69
2022/08/15 01:50:08;;;;;;;7.13;5.67;;;18.00;99.90;;;;;;5034266;28;20775;-71
2022/08/15 01:52:43;;;;;;;8.77;7.00;;;18.00;99.90;;;;;;5036705;28;20421;-70
2022/08/15 01:55:11;;;;;;;7.40;6.80;;;18.00;99.90;;;;;;5054131;28;20389;-70
2022/08/15 01:57:37;;;;;;;8.33;7.50;;;18.00;99.90;;;;;;5047187;28;20508;-78
2022/08/15 02:00:05;;;;;;;9.83;8.87;;;18.00;99.90;;;;;;5034806;28;20410;-76
2022/08/15 02:02:31;;;;;;;10.80;9.10;;;18.00;99.90;;;;;;5037104;28;20175;-70
2022/08/15 02:04:57;;;;;;;8.80;7.97;;;18.00;99.90;;;;;;5053747;28;20409;-69
2022/08/15 02:07:28;;;;;;;9.53;8.60;;;18.10;99.90;;;;;;5050868;28;20501;-78
2022/08/15 02:09:55;;;;;;;10.27;9.03;;;18.10;99.90;;;;;;5035066;28;21413;-70
2022/08/15 02:12:27;;;;;;;10.47;9.43;;;18.20;99.90;;;;;;5033914;28;20887;-70
2022/08/15 02:14:53;;;;;;;10.37;9.43;;;18.10;99.90;;;;;;5034121;28;20414;-70
2022/08/15 02:17:18;;;;;;;14.97;9.90;;;18.10;99.90;;;;;;5037241;28;20425;-70
2022/08/15 02:19:48;;;;;;;10.60;8.50;;;18.20;99.90;;;;;;5033733;28;20407;-78
2022/08/15 02:22:15;;;;;;;9.83;8.93;;;18.20;99.90;;;;;;5034060;28;20552;-70
2022/08/15 02:24:41;;;;;;;15.50;10.37;;;18.20;1.00;;;;;;5034650;28;20446;-70
2022/08/15 02:27:06;;;;;;;10.70;7.97;;;18.20;1.00;;;;;;5032772;28;20926;-78
2022/08/15 02:29:33;;;;;;;10.10;8.50;;;18.20;1.00;;;;;;5052615;28;20190;-75
2022/08/15 02:32:06;;;;;;;9.73;8.23;;;18.20;1.00;;;;;;5053614;28;20440;-70
2022/08/15 02:34:34;;;;;;;12.33;8.80;;;18.20;1.00;;;;;;5033794;28;20449;-78
2022/08/15 02:37:02;;;;;;;13.13;8.33;;;18.20;1.00;;;;;;5036485;28;20905;-70
2022/08/15 02:39:27;;;;;;;13.87;8.87;;;18.20;1.00;;;;;;5051745;28;20445;-70
2022/08/15 02:41:53;;;;;;;8.93;8.03;;;18.20;1.00;;;;;;5052703;28;20475;-78
2022/08/15 02:44:21;;;;;;;14.73;9.03;;;18.20;1.00;;;;;;5052395;28;20163;-70
2022/08/15 02:46:49;;;;;;;8.80;7.90;;;18.30;1.00;;;;;;5032452;28;20422;-78
2022/08/15 02:49:18;;;;;;;10.03;7.93;;;18.30;1.00;;;;;;5050645;28;20487;-78
2022/08/15 02:51:46;;;;;;;11.50;9.40;;;18.30;1.00;;;;;;5053353;28;20917;-78
2022/08/15 02:54:13;;;;;;;10.70;9.60;;;18.30;1.00;;;;;;5036470;28;21019;-69
2022/08/15 02:56:39;;;;;;;14.47;9.40;;;18.30;1.00;;;;;;5032351;28;20440;-70
2022/08/15 02:59:08;;;;;;;11.37;9.30;;;18.30;1.00;;;;;;5048019;28;20465;-78
2022/08/15 03:01:37;;;;;;;9.37;8.37;;;18.30;1.00;;;;;;5039107;28;20190;-78
2022/08/15 03:04:06;;;;;;;10.70;9.60;;;18.30;1.00;;;;;;5033029;28;20402;-77
2022/08/15 03:06:33;;;;;;;11.00;9.80;;;18.30;1.00;;;;;;5044650;28;20421;-78
2022/08/15 03:09:06;;;;;;;10.63;8.87;;;18.20;1.00;;;;;;5037635;28;20449;-78
2022/08/15 03:11:36;;;;;;;8.47;7.63;;;18.20;1.00;;;;;;5045586;28;20420;-78
2022/08/15 03:14:02;;;;;;;8.93;8.13;;;18.20;1.00;;;;;;5042688;28;20544;-78
2022/08/15 03:16:27;;;;;;;13.37;8.77;;;18.20;1.00;;;;;;5039605;28;20417;-71
2022/08/15 03:18:55;;;;;;;10.30;8.17;;;18.10;1.00;;;;;;5052666;28;20840;-70
2022/08/15 03:21:20;;;;;;;9.23;8.43;;;18.10;1.00;;;;;;5037011;28;20657;-78
2022/08/15 03:23:50;;;;;;;8.90;8.00;;;18.10;1.00;;;;;;5033175;28;20429;-78
2022/08/15 03:26:18;;;;;;;9.20;7.80;;;18.00;1.00;;;;;;5033965;28;20172;-78
2022/08/15 03:28:44;;;;;;;9.30;8.50;;;18.00;1.00;;;;;;5045902;28;20440;-70
2022/08/15 03:31:11;;;;;;;9.33;8.43;;;18.00;1.00;;;;;;5051018;28;20443;-70
2022/08/15 03:33:39;;;;;;;9.00;8.20;;;18.00;1.00;;;;;;5052644;28;20448;-70
2022/08/15 03:36:06;;;;;;;10.23;9.20;;;18.00;1.00;;;;;;5045412;28;20507;-78
2022/08/15 03:38:32;;;;;;;10.07;8.33;;;18.00;1.00;;;;;;5032537;28;20530;-69
2022/08/15 03:40:57;;;;;;;9.73;8.73;;;18.00;1.00;;;;;;5035916;28;20453;-69
2022/08/15 03:43:27;;;;;;;13.53;8.20;;;18.00;1.00;;;;;;5051588;28;20178;-78
2022/08/15 03:45:57;;;;;;;10.90;9.43;;;17.90;1.00;;;;;;5050927;28;20171;-69
2022/08/15 03:48:25;;;;;;;11.23;10.23;;;17.90;1.00;;;;;;5051605;28;20433;-71
2022/08/15 03:50:52;;;;;;;10.10;9.03;;;17.90;1.00;;;;;;5048114;28;20417;-69
2022/08/15 03:53:18;;;;;;;9.73;8.83;;;17.90;1.00;;;;;;5031403;28;20458;-69
2022/08/15 03:55:44;;;;;;;13.53;10.60;;;17.90;1.00;;;;;;5037728;28;20421;-72
2022/08/15 03:58:11;;;;;;;9.40;8.40;;;17.90;1.00;;;;;;5054901;28;20452;-70
2022/08/15 04:00:44;;;;;;;10.00;9.20;;;17.90;1.00;;;;;;5047981;28;20640;-70
2022/08/15 04:03:15;;;;;;;10.47;9.47;;;17.90;1.00;;;;;;5036228;28;20413;-69
2022/08/15 04:05:43;;;;;;;11.10;8.90;;;17.90;1.00;;;;;;5051732;28;20421;-70
2022/08/15 04:08:10;;;;;;;14.37;10.00;;;17.90;1.00;;;;;;5045042;28;20441;-69
2022/08/15 04:10:37;;;;;;;13.93;9.80;;;17.90;1.00;;;;;;5036239;28;20433;-69
2022/08/15 04:13:06;;;;;;;11.90;10.47;;;17.90;1.00;;;;;;5036746;28;20533;-78
2022/08/15 04:15:33;;;;;;;10.17;8.10;;;17.90;1.00;;;;;;5035819;28;20406;-69
2022/08/15 04:18:00;;;;;;;12.30;9.97;;;17.80;1.00;;;;;;5035044;28;20931;-69
2022/08/15 04:20:26;;;;;;;11.50;10.40;;;17.80;1.00;;;;;;5036147;28;20395;-77
2022/08/15 04:22:51;;;;;;;15.60;12.37;;;17.80;1.00;;;;;;5054526;28;20543;-77
2022/08/15 04:25:27;;;;;;;12.07;10.77;;;17.80;1.00;;;;;;5055904;28;20404;-70
2022/08/15 04:27:54;;;;;;;11.33;10.23;;;17.80;1.00;;;;;;5042003;28;20195;-77
2022/08/15 04:30:28;;;;;;;19.13;10.30;;;17.80;1.00;;;;;;5054882;28;20421;-69
2022/08/15 04:33:04;;;;;;;14.20;11.00;;;17.80;1.00;;;;;;5055251;28;20523;-70
2022/08/15 04:35:30;;;;;;;13.17;10.13;;;17.80;1.00;;;;;;5038902;28;20410;-70
2022/08/15 04:37:57;;;;;;;12.10;10.30;;;17.80;1.00;;;;;;5047713;28;20461;-78
2022/08/15 04:40:23;;;;;;;12.20;9.50;;;17.80;1.00;;;;;;5035440;28;20398;-70
2022/08/15 04:42:51;;;;;;;11.33;10.23;;;17.80;1.00;;;;;;5036933;28;20418;-69
2022/08/15 04:45:17;;;;;;;10.97;8.73;;;17.80;1.00;;;;;;5035437;28;20164;-70
2022/08/15 04:47:43;;;;;;;9.73;8.73;;;17.80;1.00;;;;;;5051996;28;20434;-70
2022/08/15 04:50:09;;;;;;;11.20;10.10;;;17.80;1.00;;;;;;5055440;28;20401;-78
2022/08/15 04:52:43;;;;;;;10.97;9.87;;;17.90;1.00;;;;;;5037996;28;20207;-78
2022/08/15 04:55:09;;;;;;;9.70;8.83;;;17.90;1.00;;;;;;5035424;28;20483;-78
2022/08/15 04:57:35;;;;;;;12.70;11.30;;;17.90;1.00;;;;;;5038740;28;20428;-78
2022/08/15 05:00:01;;;;;;;13.30;11.30;;;18.00;1.00;;;;;;5053924;28;20462;-71
2022/08/15 05:02:26;;;;;;;16.70;12.47;;;17.90;1.00;;;;;;5037946;28;20176;-77
2022/08/15 05:04:52;;;;;;;11.80;10.53;;;18.00;1.00;;;;;;5035997;28;20175;-78
2022/08/15 05:07:18;;;;;;;15.60;11.93;;;18.00;1.00;;;;;;5043627;28;20183;-70
2022/08/15 05:09:44;;;;;;;13.07;10.53;;;18.10;1.00;;;;;;5035003;28;20187;-71
2022/08/15 05:12:10;;;;;;;15.23;10.80;;;18.10;1.00;;;;;;5054751;28;20205;-76
2022/08/15 05:14:36;;;;;;;14.20;9.97;;;18.20;1.00;;;;;;5036868;28;20530;-69
2022/08/15 05:17:02;;;;;;;12.77;10.40;;;18.20;1.00;;;;;;5045689;28;20504;-70
2022/08/15 05:19:28;;;;;;;13.83;10.67;;;18.30;1.00;;;;;;5054475;28;20521;-78
2022/08/15 05:21:53;;;;;;;12.07;10.77;;;18.30;1.00;;;;;;5043091;28;20509;-71
2022/08/15 05:24:19;;;;;;;13.97;10.30;;;18.40;1.00;;;;;;5034671;28;20171;-70
2022/08/15 05:26:45;;;;;;;15.10;10.73;;;18.40;1.00;;;;;;5043302;28;20183;-70
2022/08/15 05:29:11;;;;;;;16.20;9.90;;;18.40;1.00;;;;;;5053966;28;20465;-70
2022/08/15 05:31:37;;;;;;;15.77;11.20;;;18.40;1.00;;;;;;5046268;28;20690;-78
2022/08/15 05:34:03;;;;;;;16.00;11.07;;;18.50;1.00;;;;;;5034615;28;20259;-70
2022/08/15 05:36:33;;;;;;;12.37;11.07;;;18.50;1.00;;;;;;5048430;28;20456;-71
2022/08/15 05:39:21;;;;;;;12.30;10.80;;;18.60;1.00;;;;;;5038962;28;20488;-79
2022/08/15 05:42:23;;;;;;;23.77;18.30;;;18.60;1.00;;;;;;5034232;28;20433;-78
2022/08/15 05:45:00;;;;;;;14.93;13.43;;;18.70;1.00;;;;;;5034432;28;20496;-77
2022/08/15 05:47:33;;;;;;;21.73;12.37;;;18.70;1.00;;;;;;5034075;28;20441;-78
2022/08/15 05:50:27;;;;;;;14.33;12.30;;;18.80;1.00;;;;;;5034264;28;20899;-71
2022/08/15 05:53:05;;;;;;;15.00;11.30;;;18.90;1.00;;;;;;5032912;28;20958;-79
2022/08/15 05:55:42;;;;;;;13.40;12.00;;;18.90;1.00;;;;;;5034298;28;20467;-71
2022/08/15 05:58:32;;;;;;;13.30;11.87;;;19.00;1.00;;;;;;5033445;28;20426;-71
2022/08/15 06:01:18;;;;;;;13.33;11.47;;;19.10;1.00;;;;;;5034122;28;20817;-79
2022/08/15 06:03:58;;;;;;;14.63;11.93;;;19.20;1.00;;;;;;5033364;28;20457;-71
2022/08/15 06:06:30;;;;;;;12.20;10.70;;;19.30;1.00;;;;;;5032418;28;20426;-71
2022/08/15 06:09:04;;;;;;;14.17;11.67;;;19.40;1.00;;;;;;5033965;28;20453;-79
2022/08/15 06:11:38;;;;;;;11.20;10.00;;;19.40;1.00;;;;;;5034181;28;20451;-70
2022/08/15 06:14:32;;;;;;;12.23;10.40;;;19.50;12.70;;;;;;5033893;28;20446;-78
2022/08/15 06:17:28;;;;;;;15.97;10.67;;;19.60;42.50;;;;;;5032681;28;20418;-78
2022/08/15 06:20:00;;;;;;;12.83;11.53;;;19.70;76.50;;;;;;5031080;28;20427;-71
2022/08/15 06:22:35;;;;;;;12.20;9.80;;;19.80;88.40;;;;;;5033882;28;20410;-79
2022/08/15 06:25:09;;;;;;;15.70;10.37;;;19.90;99.90;;;;;;5033998;28;20409;-79
2022/08/15 06:27:56;;;;;;;11.30;9.40;;;19.90;99.90;;;;;;5032993;28;20460;-71
2022/08/15 06:30:48;;;;;;;9.90;9.00;;;20.00;99.90;;;;;;5033762;28;20406;-78
2022/08/15 06:33:28;;;;;;;10.67;8.47;;;20.10;99.90;;;;;;5035104;28;20531;-79
2022/08/15 06:36:10;;;;;;;11.07;9.70;;;20.20;99.90;;;;;;5033480;28;20871;-71
2022/08/15 06:38:48;;;;;;;11.70;7.63;;;20.30;99.90;;;;;;5033309;28;20453;-79
2022/08/15 06:41:27;;;;;;;10.60;8.13;;;20.40;99.90;;;;;;5033416;28;20799;-79
2022/08/15 06:43:56;;;;;;;14.03;9.07;;;20.40;99.30;;;;;;5033516;28;20406;-71
2022/08/15 06:46:27;;;;;;;13.50;8.43;;;20.50;95.20;;;;;;5032711;28;20410;-79
2022/08/15 06:48:53;;;;;;;11.50;9.07;;;20.60;98.20;;;;;;5033409;28;20434;-70
2022/08/15 06:51:20;;;;;;;11.13;9.47;;;20.70;89.00;;;;;;5033201;28;20490;-75
2022/08/15 06:53:56;;;;;;;14.03;7.33;;;20.70;73.60;;;;;;5033327;28;20454;-78
2022/08/15 06:56:30;;;;;;;8.73;7.47;;;20.80;61.80;;;;;;5032165;28;20402;-71
2022/08/15 06:59:18;;;;;;;9.50;8.50;;;20.90;58.00;;;;;;5031691;28;20437;-70
2022/08/15 07:01:58;;;;;;;10.80;7.90;;;21.00;32.50;;;;;;5032026;28;20425;-79
2022/08/15 07:04:42;;;;;;;9.80;7.10;;;21.10;13.60;;;;;;5033094;28;20505;-77
2022/08/15 07:07:17;;;;;;;10.90;7.13;;;21.20;1.00;;;;;;5032632;28;20409;-70
2022/08/15 07:09:53;;;;;;;14.00;7.70;;;21.30;1.00;;;;;;5032749;28;20791;-70
2022/08/15 07:12:26;;;;;;;8.73;7.30;;;21.40;1.00;;;;;;5033304;28;20868;-78
2022/08/15 07:15:04;;;;;;;7.60;6.30;;;21.60;1.00;;;;;;5040692;28;20860;-71
2022/08/15 07:17:39;;;;;;;13.00;8.00;;;21.70;1.00;;;;;;5051928;28;20429;-71
2022/08/15 07:20:07;;;;;;;10.17;7.70;;;21.80;1.00;;;;;;5043790;28;20751;-70
2022/08/15 07:22:34;;;;;;;12.30;8.50;;;21.90;1.00;;;;;;5033305;28;20418;-71
2022/08/15 07:24:59;;;;;;;8.27;7.43;;;22.00;1.00;;;;;;5033473;28;20418;-70
2022/08/15 07:27:31;;;;;;;8.33;6.60;;;22.10;1.00;;;;;;5032247;28;20918;-70
2022/08/15 07:30:20;;;;;;;8.27;7.43;;;22.20;1.00;;;;;;5052802;28;20588;-70
2022/08/15 07:32:56;;;;;;;12.30;7.70;;;22.40;1.00;;;;;;5056254;28;20405;-74
2022/08/15 07:35:27;;;;;;;8.47;7.00;;;22.50;1.00;;;;;;5036887;28;20461;-70
2022/08/15 07:37:59;;;;;;;12.00;7.60;;;22.60;1.00;;;;;;5036128;28;20422;-79
2022/08/15 07:40:29;;;;;;;7.63;6.83;;;22.70;99.90;;;;;;5056613;28;20961;-71
2022/08/15 07:42:57;;;;;;;8.40;7.60;;;22.80;99.90;;;;;;5056176;28;20436;-78
2022/08/15 07:45:28;;;;;;;8.03;7.23;;;23.00;99.90;;;;;;5036804;28;20410;-78
2022/08/15 07:48:03;;;;;;;9.10;8.17;;;23.10;99.90;;;;;;5035782;28;20524;-78
2022/08/15 07:50:34;;;;;;;7.20;6.50;;;23.20;99.90;;;;;;5035362;28;20983;-70
2022/08/15 07:53:10;;;;;;;7.43;6.67;;;23.40;99.90;;;;;;5035972;28;20452;-77
2022/08/15 07:55:37;;;;;;;7.67;6.80;;;23.50;99.90;;;;;;5036548;28;20402;-70
2022/08/15 07:58:17;;;;;;;9.83;8.83;;;23.60;99.90;;;;;;5035510;28;20534;-70
2022/08/15 08:01:05;;;;;;;8.27;7.00;;;23.80;99.90;;;;;;5054058;28;20427;-77
2022/08/15 08:03:32;;;;;;;8.60;7.70;;;23.90;99.90;;;;;;5055383;28;20429;-75
2022/08/15 08:06:23;;;;;;;10.30;7.90;;;24.00;99.90;;;;;;5056189;28;20409;-77
2022/08/15 08:09:06;;;;;;;8.47;7.67;;;24.20;99.90;;;;;;5055003;28;20532;-70
2022/08/15 08:11:54;;;;;;;7.67;6.80;;;24.40;99.90;;;;;;5053736;28;20455;-77
2022/08/15 08:14:44;;;;;;;11.40;7.80;;;24.60;99.90;;;;;;5036158;28;20537;-69
2022/08/15 08:17:30;;;;;;;8.43;6.80;;;24.70;99.90;;;;;;5036159;28;20829;-75
2022/08/15 08:20:26;;;;;;;7.13;6.57;;;24.90;99.90;;;;;;5036070;28;20401;-68
2022/08/15 08:23:01;;;;;;;8.40;7.50;;;25.10;99.90;;;;;;5036636;28;20501;-68
2022/08/15 08:25:55;;;;;;;8.37;7.53;;;25.20;99.90;;;;;;5036134;28;20398;-75
2022/08/15 08:28:38;;;;;;;9.17;8.20;;;25.20;99.90;;;;;;5043981;28;20437;-75
2022/08/15 08:31:21;;;;;;;10.43;7.63;;;25.20;97.70;;;;;;5054956;28;20397;-67
2022/08/15 08:34:07;;;;;;;7.50;6.80;;;25.20;97.60;;;;;;5055653;28;20779;-76
2022/08/15 08:36:46;;;;;;;8.47;7.43;;;25.40;91.30;;;;;;5033392;28;20497;-68
2022/08/15 08:39:33;;;;;;;7.93;7.13;;;25.50;91.60;;;;;;5036605;28;20421;-68
2022/08/15 08:42:18;;;;;;;13.07;8.30;;;25.60;91.20;;;;;;5055970;28;20398;-75
2022/08/15 08:44:44;;;;;;;8.17;7.43;;;25.60;67.10;;;;;;5050155;28;20462;-68
2022/08/15 08:47:21;;;;;;;11.23;7.20;;;25.60;71.40;;;;;;5034431;28;20421;-68
2022/08/15 08:50:10;;;;;;;6.87;6.17;;;25.70;68.20;;;;;;5038638;28;20179;-77
2022/08/15 08:52:55;;;;;;;9.70;7.87;;;26.00;62.90;;;;;;5035437;28;20409;-68
2022/08/15 08:55:25;;;;;;;14.50;10.73;;;26.30;37.70;;;;;;5035568;28;20782;-76
2022/08/15 08:58:08;;;;;;;10.40;7.00;;;26.50;1.00;;;;;;5034298;28;20418;-67
2022/08/15 09:00:43;;;;;;;8.73;6.83;;;26.80;1.00;;;;;;5035449;28;20414;-74
2022/08/15 09:03:18;;;;;;;9.33;7.00;;;27.00;1.00;;;;;;5035153;28;20425;-67
2022/08/15 09:05:51;;;;;;;10.67;6.77;;;27.30;1.00;;;;;;5050228;28;20421;-71
2022/08/15 09:08:41;;;;;;;10.83;7.00;;;27.50;1.00;;;;;;5053826;28;20421;-75
2022/08/15 09:11:18;;;;;;;7.80;7.00;;;27.70;1.00;;;;;;5054065;28;20421;-68
2022/08/15 09:13:46;;;;;;;12.10;7.37;;;27.90;1.00;;;;;;5055981;28;20452;-75
2022/08/15 09:16:25;;;;;;;9.30;7.50;;;28.00;1.00;;;;;;5035544;28;20472;-67
2022/08/15 09:18:56;;;;;;;7.47;6.77;;;28.00;1.00;;;;;;5036586;28;20422;-74
2022/08/15 09:21:22;;;;;;;10.23;7.33;;;28.10;1.00;;;;;;5053847;28;20422;-70
2022/08/15 09:23:48;;;;;;;8.20;7.33;;;28.20;1.00;;;;;;5053242;28;20504;-72
2022/08/15 09:26:40;;;;;;;7.80;7.20;;;28.40;1.00;;;;;;5033551;28;20178;-70
2022/08/15 09:29:31;;;;;;;7.90;7.30;;;28.60;1.00;;;;;;5035874;28;20229;-70
2022/08/15 09:32:28;;;;;;;8.40;7.60;;;28.60;1.00;;;;;;5034772;28;20442;-69
2022/08/15 09:35:15;;;;;;;7.60;7.00;;;28.50;1.00;;;;;;5046760;28;20457;-70
2022/08/15 09:38:07;;;;;;;15.90;8.40;;;28.30;1.00;;;;;;5053685;28;20426;-70
2022/08/15 09:40:50;;;;;;;9.30;7.73;;;28.40;1.00;;;;;;5052775;28;20933;-69
2022/08/15 09:43:55;;;;;;;8.30;7.47;;;28.30;1.00;;;;;;5054618;28;20801;-70
2022/08/15 09:47:00;;;;;;;9.93;8.73;;;28.20;1.00;;;;;;5032182;28;20514;-70
2022/08/15 09:49:32;;;;;;;8.30;7.47;;;28.20;1.00;;;;;;5041169;28;20437;-70
2022/08/15 09:52:12;;;;;;;8.87;7.97;;;28.20;1.00;;;;;;5053867;28;20774;-78
2022/08/15 09:54:49;;;;;;;8.87;7.97;;;28.10;1.00;;;;;;5045640;28;20454;-77
2022/08/15 09:57:29;;;;;;;9.57;8.13;;;28.20;1.00;;;;;;5033274;28;20424;-69
2022/08/15 10:00:00;;;;;;;16.40;8.27;;;28.20;1.00;;;;;;5034977;28;20771;-71
2022/08/15 10:02:32;;;;;;;11.63;7.87;;;28.20;1.00;;;;;;5033882;28;20417;-77
2022/08/15 10:04:57;;;;;;;10.73;7.30;;;28.10;1.00;;;;;;5045365;28;20424;-70
2022/08/15 10:07:45;;;;;;;11.43;8.53;;;28.20;1.00;;;;;;5052933;28;20409;-78
2022/08/15 10:10:31;;;;;;;10.97;8.13;;;28.30;1.00;;;;;;5040899;28;20187;-77
2022/08/15 10:13:14;;;;;;;9.37;8.40;;;28.30;1.00;;;;;;5034023;28;20740;-78
2022/08/15 10:15:44;;;;;;;9.80;8.53;;;28.40;1.00;;;;;;5049619;28;20435;-70
2022/08/15 10:18:30;;;;;;;10.43;8.50;;;28.90;1.00;;;;;;5053016;28;20430;-78
2022/08/15 10:20:55;;;;;;;13.30;8.00;;;29.20;1.00;;;;;;5040812;28;20418;-70
2022/08/15 10:23:49;;;;;;;8.80;8.00;;;29.30;1.00;;;;;;5034012;28;20880;-78
2022/08/15 10:26:28;;;;;;;14.33;8.47;;;29.70;1.00;;;;;;5033682;28;20643;-78
2022/08/15 10:29:17;;;;;;;9.07;7.90;;;30.30;1.00;;;;;;5036018;28;20449;-77
2022/08/15 10:31:55;;;;;;;8.80;7.37;;;30.90;1.00;;;;;;5053714;28;20506;-78
2022/08/15 10:34:37;;;;;;;9.60;8.70;;;31.40;1.00;;;;;;5043858;28;20460;-78
2022/08/15 10:37:15;;;;;;;7.93;7.20;;;31.70;99.90;;;;;;5032823;28;20417;-79
2022/08/15 10:39:57;;;;;;;10.53;8.40;;;32.00;99.90;;;;;;5044408;28;20483;-78
2022/08/15 10:43:02;;;;;;;10.73;9.50;;;32.00;99.90;;;;;;5052220;28;20784;-78
2022/08/15 10:45:45;;;;;;;8.63;7.73;;;31.90;99.90;;;;;;5035397;28;20422;-78
2022/08/15 10:48:43;;;;;;;8.87;8.00;;;32.20;99.90;;;;;;5038403;28;20532;-78
2022/08/15 10:51:26;;;;;;;9.70;8.50;;;32.70;99.90;;;;;;5053371;28;20409;-78
2022/08/15 10:54:10;;;;;;;11.83;8.20;;;32.80;99.90;;;;;;5041901;28;20457;-79
2022/08/15 10:56:38;;;;;;;9.47;8.00;;;32.40;99.90;;;;;;5032121;28;20450;-75
2022/08/15 10:59:13;;;;;;;15.23;9.17;;;32.00;99.90;;;;;;5045208;28;20482;-78
2022/08/15 11:01:43;;;;;;;8.60;7.87;;;31.80;99.90;;;;;;5053187;28;20482;-69
2022/08/15 11:04:27;;;;;;;15.73;8.10;;;31.50;99.90;;;;;;5039348;28;20809;-70
2022/08/15 11:06:54;;;;;;;9.33;8.43;;;31.40;99.90;;;;;;5036567;28;20431;-69
2022/08/15 11:09:21;;;;;;;8.73;7.93;;;31.40;99.90;;;;;;5050354;28;20841;-78
2022/08/15 11:11:57;;;;;;;9.93;8.93;;;31.80;99.90;;;;;;5057445;28;20416;-77
2022/08/15 11:14:27;;;;;;;9.10;7.10;;;32.20;99.90;;;;;;5043618;28;20453;-70
2022/08/15 11:16:55;;;;;;;11.67;7.83;;;32.80;99.90;;;;;;5034721;28;20767;-70
2022/08/15 11:19:38;;;;;;;8.27;7.47;;;33.20;99.90;;;;;;5049592;28;20920;-77
2022/08/15 11:22:16;;;;;;;8.93;6.73;;;33.20;99.90;;;;;;5057306;28;20405;-70
2022/08/15 11:24:42;;;;;;;8.57;7.77;;;33.10;99.90;;;;;;5041990;28;20428;-69
2022/08/15 11:27:24;;;;;;;16.53;7.97;;;33.20;99.90;;;;;;5035870;28;20402;-69
2022/08/15 11:29:52;;;;;;;8.03;7.23;;;33.20;99.90;;;;;;5052124;28;20181;-70
2022/08/15 11:32:38;;;;;;;9.90;8.10;;;33.10;99.90;;;;;;5057013;28;20416;-74
2022/08/15 11:35:29;;;;;;;8.50;7.27;;;33.10;99.90;;;;;;5038268;28;20837;-71
2022/08/15 11:37:59;;;;;;;7.57;6.93;;;33.50;99.90;;;;;;5036007;28;20422;-78
2022/08/15 11:40:29;;;;;;;8.10;7.30;;;34.00;99.90;;;;;;5055628;28;20420;-69
2022/08/15 11:42:57;;;;;;;7.37;6.60;;;34.40;99.90;;;;;;5056792;28;20401;-77
2022/08/15 11:45:30;;;;;;;7.43;6.80;;;34.70;99.90;;;;;;5038341;28;20450;-70
2022/08/15 11:47:57;;;;;;;6.73;6.03;;;34.90;99.90;;;;;;5036579;28;20422;-77
2022/08/15 11:50:31;;;;;;;7.33;6.57;;;34.80;99.90;;;;;;5056282;28;20774;-77
2022/08/15 11:53:01;;;;;;;7.03;6.53;;;35.00;99.90;;;;;;5055395;28;20440;-78
2022/08/15 11:55:29;;;;;;;7.97;7.17;;;35.10;99.90;;;;;;5036594;28;20406;-78
2022/08/15 11:58:15;;;;;;;7.27;6.67;;;35.60;99.90;;;;;;5035527;28;20786;-75
2022/08/15 12:00:45;;;;;;;7.77;6.20;;;35.90;99.90;;;;;;5056053;28;20496;-76
2022/08/15 12:03:32;;;;;;;15.20;6.37;;;35.90;99.90;;;;;;5050972;28;20418;-77
2022/08/15 12:06:01;;;;;;;6.60;5.70;;;35.90;99.90;;;;;;5036121;28;20436;-77
2022/08/15 12:08:33;;;;;;;12.50;7.20;;;36.00;99.90;;;;;;5041493;28;20440;-75
2022/08/15 12:11:21;;;;;;;6.63;6.10;;;36.60;99.90;;;;;;5055698;28;20435;-77
2022/08/15 12:14:18;;;;;;;10.70;7.70;;;36.20;99.90;;;;;;5047584;28;20806;-68
2022/08/15 12:16:57;;;;;;;7.87;7.07;;;34.90;99.90;;;;;;5034900;28;20472;-69
2022/08/15 12:19:28;;;;;;;13.60;8.47;;;34.10;99.90;;;;;;5048644;28;20443;-68
2022/08/15 12:21:53;;;;;;;10.70;7.20;;;33.60;99.90;;;;;;5056217;28;20394;-77
2022/08/15 12:24:31;;;;;;;9.63;7.70;;;33.10;99.90;;;;;;5042801;28;20432;-69
2022/08/15 12:27:01;;;;;;;8.10;7.30;;;32.80;99.90;;;;;;5034511;28;20240;-69
2022/08/15 12:29:31;;;;;;;9.13;7.83;;;32.60;99.90;;;;;;5047432;28;20476;-68
2022/08/15 12:31:58;;;;;;;8.87;8.17;;;32.50;99.90;;;;;;5055891;28;20790;-69
2022/08/15 12:34:54;;;;;;;8.10;7.30;;;32.20;99.90;;;;;;5048048;28;20466;-69
2022/08/15 12:37:26;;;;;;;10.27;7.50;;;32.00;99.90;;;;;;5057221;28;20425;-76
2022/08/15 12:39:56;;;;;;;7.57;6.97;;;32.00;99.90;;;;;;5055761;28;20874;-77
2022/08/15 12:42:26;;;;;;;8.60;7.50;;;32.00;99.90;;;;;;5055007;28;20414;-76
2022/08/15 12:44:55;;;;;;;10.43;7.17;;;32.10;99.90;;;;;;5053895;28;20410;-75
2022/08/15 12:47:23;;;;;;;7.40;6.80;;;32.20;99.90;;;;;;5052756;28;20432;-77
2022/08/15 12:49:49;;;;;;;8.27;7.47;;;32.20;99.90;;;;;;5055675;28;20412;-69
2022/08/15 12:52:19;;;;;;;7.93;7.20;;;32.10;99.90;;;;;;5041633;28;20927;-70
2022/08/15 12:54:46;;;;;;;8.30;7.47;;;32.10;99.90;;;;;;5048546;28;20941;-70
2022/08/15 12:57:12;;;;;;;9.00;8.20;;;31.80;99.90;;;;;;5041542;28;20422;-76
2022/08/15 12:59:37;;;;;;;10.77;7.40;;;31.40;99.90;;;;;;5035383;28;20730;-77
2022/08/15 13:02:04;;;;;;;8.70;7.47;;;30.80;99.90;;;;;;5033202;28;20664;-77
2022/08/15 13:04:30;;;;;;;9.37;8.47;;;30.50;99.90;;;;;;5035265;28;20182;-69
2022/08/15 13:06:58;;;;;;;9.00;8.10;;;30.10;99.90;;;;;;5046835;28;20437;-69
2022/08/15 13:09:27;;;;;;;8.70;7.60;;;29.50;99.90;;;;;;5054600;28;20460;-69
2022/08/15 13:11:54;;;;;;;9.60;8.27;;;29.30;99.90;;;;;;5043185;28;20422;-77
2022/08/15 13:14:20;;;;;;;8.77;7.77;;;29.10;99.90;;;;;;5033968;28;20462;-76
2022/08/15 13:16:48;;;;;;;9.07;8.00;;;29.10;99.90;;;;;;5034062;28;20841;-69
2022/08/15 13:19:22;;;;;;;8.50;7.80;;;29.30;99.90;;;;;;5033510;28;20290;-70
2022/08/15 13:24:33;;;;;;;9.53;7.67;;;29.90;99.90;;;;;;5055226;28;20869;-69
2022/08/15 13:27:00;;;;;;;8.17;7.57;;;30.10;99.90;;;;;;5038605;28;20430;-70